createdAt,value
2022-11-03T00:00:21.045Z,101571.56
2022-11-03T00:02:51.698Z,101580.41
2022-11-03T00:05:40.669Z,101574.31
2022-11-03T00:08:08.494Z,101578.34
2022-11-03T00:10:49.793Z,101577.06
2022-11-03T00:13:22.909Z,101583.97
2022-11-03T00:15:59.214Z,101585.97
2022-11-03T00:18:37.672Z,101577.44
2022-11-03T00:21:14.827Z,101580.25
2022-11-03T00:23:51.924Z,101582.31
2022-11-03T00:26:32.268Z,101592.72
2022-11-03T00:29:13.406Z,101587.53
2022-11-03T00:31:47.518Z,101582.25
2022-11-03T00:34:22.746Z,101582.69
2022-11-03T00:36:55.154Z,101573.69
2022-11-03T00:39:26.084Z,101580.63
2022-11-03T00:41:57.053Z,101570.06
2022-11-03T00:44:26.991Z,101575.44
2022-11-03T00:47:04.091Z,101569.34
2022-11-03T00:49:40.091Z,101573.78
2022-11-03T00:52:13.043Z,101574.63
2022-11-03T00:54:54.289Z,101572.97
2022-11-03T00:57:27.910Z,101573.69
2022-11-03T01:00:01.051Z,101575.78
2022-11-03T01:02:40.442Z,101570.88
2022-11-03T01:05:32.950Z,101568.44
2022-11-03T01:08:08.170Z,101568.38
2022-11-03T01:10:41.572Z,101564.72
2022-11-03T01:13:16.368Z,101554.34
2022-11-03T01:15:52.589Z,101559.91
2022-11-03T01:18:23.033Z,101554.19
2022-11-03T01:21:01.977Z,101551.78
2022-11-03T01:23:29.946Z,101556.69
2022-11-03T01:26:04.802Z,101550.25
2022-11-03T01:28:36.327Z,101546.59
2022-11-03T01:31:09.657Z,101549.44
2022-11-03T01:33:48.628Z,101546.22
2022-11-03T01:36:25.383Z,101550.25
2022-11-03T01:39:06.434Z,101533.69
2022-11-03T01:41:42.521Z,101530.88
2022-11-03T01:44:21.883Z,101530.03
2022-11-03T01:46:55.161Z,101522.84
2022-11-03T01:49:34.935Z,101532.84
2022-11-03T01:52:13.146Z,101522.41
2022-11-03T01:54:52.850Z,101524.78
2022-11-03T01:57:33.654Z,101512.31
2022-11-03T02:00:11.561Z,101505.84
2022-11-03T02:02:50.779Z,101509.94
2022-11-03T02:05:25.854Z,101507.19
2022-11-03T02:08:05.688Z,101498.44
2022-11-03T02:10:41.133Z,101491.84
2022-11-03T02:13:27.589Z,101492.47
2022-11-03T02:16:03.823Z,101503.13
2022-11-03T02:18:41.969Z,101503.78
2022-11-03T02:21:31.111Z,101496.94
2022-11-03T02:24:37.502Z,101500.81
2022-11-03T02:27:17.124Z,101493.28
2022-11-03T02:29:47.811Z,101488.03
2022-11-03T02:32:32.437Z,101495.63
2022-11-03T02:35:19.950Z,101490.03
2022-11-03T02:37:56.539Z,101485.25
2022-11-03T02:40:35.374Z,101487.28
2022-11-03T02:43:13.865Z,101488.97
2022-11-03T02:45:46.894Z,101494.66
2022-11-03T02:48:19.269Z,101491.09
2022-11-03T02:50:55.158Z,101503.34
2022-11-03T02:53:25.786Z,101492.28
2022-11-03T02:56:11.416Z,101506.03
2022-11-03T02:58:53.811Z,101491.53
2022-11-03T03:01:49.217Z,101495.94
2022-11-03T03:04:38.842Z,101493.16
2022-11-03T03:07:22.021Z,101496.53
2022-11-03T03:10:06.609Z,101499.22
2022-11-03T03:12:50.803Z,101495.56
2022-11-03T03:15:23.168Z,101493.16
2022-11-03T03:18:26.427Z,101479.78
2022-11-03T03:21:11.914Z,101478.53
2022-11-03T03:23:57.624Z,101474.31
2022-11-03T03:26:38.070Z,101471.19
2022-11-03T03:29:22.329Z,101475.13
2022-11-03T03:32:01.434Z,101467.03
2022-11-03T03:34:40.471Z,101468.97
2022-11-03T03:37:16.029Z,101461.19
2022-11-03T03:39:51.222Z,101463.19
2022-11-03T03:42:25.217Z,101472.63
2022-11-03T03:45:02.186Z,101478.28
2022-11-03T03:47:36.945Z,101473.72
2022-11-03T03:50:08.928Z,101480.00
2022-11-03T03:52:40.282Z,101480.84
2022-11-03T03:55:29.550Z,101477.13
2022-11-03T03:58:00.540Z,101480.75
2022-11-03T04:00:33.183Z,101482.25
2022-11-03T04:03:04.344Z,101482.53
2022-11-03T04:05:46.419Z,101493.03
2022-11-03T04:08:18.244Z,101492.22
2022-11-03T04:11:06.732Z,101493.38
2022-11-03T04:13:55.870Z,101489.22
2022-11-03T04:16:45.076Z,101486.03
2022-11-03T04:19:36.948Z,101478.38
2022-11-03T04:22:24.084Z,101482.41
2022-11-03T04:24:54.628Z,101480.38
2022-11-03T04:27:38.156Z,101473.47
2022-11-03T04:30:23.469Z,101470.31
2022-11-03T04:32:54.547Z,101469.09
2022-11-03T04:35:28.891Z,101465.03
2022-11-03T04:38:13.320Z,101471.41
2022-11-03T04:40:57.027Z,101464.94
2022-11-03T04:43:41.282Z,101459.69
2022-11-03T04:46:18.943Z,101455.13
2022-11-03T04:48:49.564Z,101454.41
2022-11-03T04:51:25.729Z,101452.78
2022-11-03T04:54:21.206Z,101449.56
2022-11-03T04:56:51.229Z,101441.50
2022-11-03T04:59:26.179Z,101449.16
2022-11-03T05:01:57.719Z,101446.75
2022-11-03T05:04:31.329Z,101435.47
2022-11-03T05:07:10.429Z,101433.84
2022-11-03T05:09:42.995Z,101435.84
2022-11-03T05:12:19.233Z,101442.25
2022-11-03T05:14:57.104Z,101441.84
2022-11-03T05:17:32.901Z,101443.13
2022-11-03T05:20:07.382Z,101447.13
2022-11-03T05:22:37.636Z,101437.75
2022-11-03T05:25:40.294Z,101443.41
2022-11-03T05:28:26.641Z,101435.31
2022-11-03T05:30:58.137Z,101434.94
2022-11-03T05:33:37.123Z,101428.56
2022-11-03T05:36:18.754Z,101417.66
2022-11-03T05:38:50.169Z,101411.66
2022-11-03T05:41:23.748Z,101417.22
2022-11-03T05:44:25.451Z,101412.84
2022-11-03T05:47:04.502Z,101417.66
2022-11-03T05:49:47.344Z,101406.41
2022-11-03T05:52:29.786Z,101400.75
2022-11-03T05:55:02.304Z,101407.59
2022-11-03T05:57:35.949Z,101408.41
2022-11-03T06:00:24.894Z,101405.94
2022-11-03T06:03:00.166Z,101410.47
2022-11-03T06:05:35.216Z,101413.66
2022-11-03T06:08:18.031Z,101412.78
2022-11-03T06:10:51.675Z,101419.16
2022-11-03T06:13:30.221Z,101419.22
2022-11-03T06:16:04.694Z,101413.97
2022-11-03T06:18:43.585Z,101411.16
2022-11-03T06:21:19.262Z,101409.13
2022-11-03T06:23:51.822Z,101407.50
2022-11-03T06:26:30.599Z,101411.06
2022-11-03T06:29:03.210Z,101420.78
2022-11-03T06:31:39.263Z,101429.63
2022-11-03T06:34:29.560Z,101431.69
2022-11-03T06:37:06.446Z,101428.50
2022-11-03T06:39:42.989Z,101438.81
2022-11-03T06:42:21.154Z,101442.81
2022-11-03T06:44:51.884Z,101446.53
2022-11-03T06:47:35.494Z,101450.97
2022-11-03T06:50:43.798Z,101453.78
2022-11-03T06:53:21.531Z,101447.41
2022-11-03T06:55:53.167Z,101452.63
2022-11-03T06:58:22.280Z,101444.53
2022-11-03T07:00:54.957Z,101452.91
2022-11-03T07:03:38.105Z,101458.53
2022-11-03T07:06:25.393Z,101458.28
2022-11-03T07:09:05.684Z,101454.88
2022-11-03T07:11:44.153Z,101459.91
2022-11-03T07:14:17.137Z,101449.66
2022-11-03T07:16:54.587Z,101453.00
2022-11-03T07:19:33.388Z,101445.09
2022-11-03T07:22:08.821Z,101441.22
2022-11-03T07:24:59.829Z,101449.84
2022-11-03T07:27:32.255Z,101445.69
2022-11-03T07:30:22.697Z,101447.50
2022-11-03T07:32:59.957Z,101456.28
2022-11-03T07:36:13.863Z,101450.91
2022-11-03T07:38:34.981Z,101449.09
2022-11-03T07:41:02.972Z,101446.81
2022-11-03T07:43:43.834Z,101452.91
2022-11-03T07:46:19.548Z,101450.84
2022-11-03T07:49:11.440Z,101455.88
2022-11-03T07:51:56.143Z,101453.50
2022-11-03T07:54:39.588Z,101441.63
2022-11-03T07:57:23.616Z,101438.50
2022-11-03T07:59:58.591Z,101440.31
2022-11-03T08:02:47.906Z,101438.53
2022-11-03T08:07:50.699Z,101439.97
2022-11-03T08:10:26.905Z,101433.47
2022-11-03T08:13:00.369Z,101431.88
2022-11-03T08:15:33.921Z,101428.38
2022-11-03T08:18:05.186Z,101435.56
2022-11-03T08:20:35.753Z,101431.53
2022-11-03T08:23:25.130Z,101429.03
2022-11-03T08:26:00.046Z,101427.41
2022-11-03T08:28:33.977Z,101421.06
2022-11-03T08:31:12.823Z,101410.13
2022-11-03T08:33:42.006Z,101410.44
2022-11-03T08:36:13.911Z,101412.09
2022-11-03T08:38:44.816Z,101416.41
2022-11-03T08:41:17.928Z,101417.22
2022-11-03T08:43:51.378Z,101414.53
2022-11-03T08:46:23.779Z,101408.16
2022-11-03T08:48:59.973Z,101406.63
2022-11-03T08:51:37.835Z,101397.88
2022-11-03T08:54:12.975Z,101410.22
2022-11-03T08:56:49.590Z,101401.25
2022-11-03T08:59:23.449Z,101392.28
2022-11-03T09:01:54.371Z,101394.78
2022-11-03T09:04:33.508Z,101385.13
2022-11-03T09:07:07.009Z,101377.00
2022-11-03T09:12:32.960Z,101369.50
2022-11-03T09:15:01.119Z,101368.22
2022-11-03T09:17:32.461Z,101355.56
2022-11-03T09:20:09.907Z,101354.16
2022-11-03T09:22:41.140Z,101355.94
2022-11-03T09:25:11.609Z,101351.91
2022-11-03T09:27:42.369Z,101353.84
2022-11-03T09:30:14.506Z,101355.50
2022-11-03T09:32:51.458Z,101348.63
2022-11-03T09:35:28.180Z,101358.00
2022-11-03T09:37:59.276Z,101345.94
2022-11-03T09:40:32.264Z,101352.25
2022-11-03T09:43:05.281Z,101349.53
2022-11-03T09:45:33.794Z,101348.22
2022-11-03T09:48:05.796Z,101346.66
2022-11-03T09:50:40.247Z,101346.00
2022-11-03T09:53:15.035Z,101342.78
2022-11-03T09:55:48.229Z,101336.81
2022-11-03T09:58:22.179Z,101333.59
2022-11-03T10:00:53.211Z,101321.22
2022-11-03T10:03:24.813Z,101316.88
2022-11-03T10:05:55.927Z,101317.91
2022-11-03T10:08:34.876Z,101317.19
2022-11-03T10:11:07.494Z,101324.94
2022-11-03T10:13:43.330Z,101330.97
2022-11-03T10:16:12.684Z,101320.97
2022-11-03T10:18:41.941Z,101317.63
2022-11-03T10:21:22.890Z,101308.09
2022-11-03T10:23:56.220Z,101306.00
2022-11-03T10:26:26.947Z,101305.66
2022-11-03T10:28:59.534Z,101301.97
2022-11-03T10:31:43.648Z,101296.66
2022-11-03T10:34:32.341Z,101297.59
2022-11-03T10:37:22.157Z,101294.78
2022-11-03T10:40:06.895Z,101293.34
2022-11-03T10:42:40.852Z,101281.13
2022-11-03T10:45:18.206Z,101283.06
2022-11-03T10:48:10.465Z,101282.63
2022-11-03T10:50:50.349Z,101293.78
2022-11-03T10:53:21.169Z,101293.81
2022-11-03T10:55:57.574Z,101285.28
2022-11-03T10:58:34.926Z,101268.72
2022-11-03T11:01:10.307Z,101257.06
2022-11-03T11:03:43.480Z,101262.38
2022-11-03T11:06:21.672Z,101248.25
2022-11-03T11:08:59.782Z,101245.44
2022-11-03T11:11:35.044Z,101248.19
2022-11-03T11:14:36.940Z,101257.13
2022-11-03T11:17:39.750Z,101237.78
2022-11-03T11:20:22.957Z,101238.13
2022-11-03T11:23:17.005Z,101227.94
2022-11-03T11:26:09.661Z,101223.50
2022-11-03T11:28:45.519Z,101217.84
2022-11-03T11:31:33.132Z,101204.19
2022-11-03T11:34:12.943Z,101206.19
2022-11-03T11:36:44.475Z,101208.16
2022-11-03T11:39:19.133Z,101203.88
2022-11-03T11:42:14.697Z,101198.72
2022-11-03T11:44:54.119Z,101198.78
2022-11-03T11:47:42.822Z,101189.22
2022-11-03T11:50:20.783Z,101180.75
2022-11-03T11:53:08.015Z,101171.56
2022-11-03T11:55:45.549Z,101165.88
2022-11-03T11:58:45.825Z,101172.63
2022-11-03T12:01:34.526Z,101162.94
2022-11-03T12:04:21.875Z,101166.19
2022-11-03T12:06:59.739Z,101162.56
2022-11-03T12:09:33.723Z,101164.53
2022-11-03T12:12:08.308Z,101162.09
2022-11-03T12:14:41.467Z,101162.81
2022-11-03T12:17:18.265Z,101169.66
2022-11-03T12:19:51.864Z,101160.25
2022-11-03T12:22:29.099Z,101147.81
2022-11-03T12:25:07.131Z,101141.66
2022-11-03T12:27:35.475Z,101142.13
2022-11-03T12:30:12.402Z,101135.75
2022-11-03T12:32:41.049Z,101130.88
2022-11-03T12:35:12.670Z,101122.41
2022-11-03T12:37:50.061Z,101127.88
2022-11-03T12:40:25.991Z,101120.78
2022-11-03T12:42:55.017Z,101110.66
2022-11-03T12:45:31.262Z,101116.56
2022-11-03T12:48:10.046Z,101119.06
2022-11-03T12:50:39.431Z,101118.50
2022-11-03T12:53:15.944Z,101111.50
2022-11-03T12:55:46.554Z,101106.56
2022-11-03T12:58:17.072Z,101107.41
2022-11-03T13:00:50.040Z,101099.94
2022-11-03T13:03:25.071Z,101092.56
2022-11-03T13:05:56.299Z,101091.75
2022-11-03T13:08:29.037Z,101084.41
2022-11-03T13:10:59.986Z,101081.97
2022-11-03T13:13:33.194Z,101075.34
2022-11-03T13:16:10.136Z,101071.22
2022-11-03T13:18:42.773Z,101071.22
2022-11-03T13:21:16.568Z,101065.97
2022-11-03T13:23:56.394Z,101070.31
2022-11-03T13:26:29.355Z,101065.41
2022-11-03T13:29:00.018Z,101058.84
2022-11-03T13:31:38.038Z,101056.16
2022-11-03T13:34:06.545Z,101051.84
2022-11-03T13:36:35.065Z,101040.53
2022-11-03T13:39:10.120Z,101032.06
2022-11-03T13:41:44.348Z,101024.09
2022-11-03T13:44:16.204Z,101015.63
2022-11-03T13:46:55.475Z,101000.13
2022-11-03T13:50:07.659Z,101002.69
2022-11-03T13:52:36.715Z,101009.44
2022-11-03T14:01:00.407Z,100996.09
2022-11-03T14:06:36.119Z,100986.63
2022-11-03T14:09:10.513Z,100981.75
2022-11-03T14:12:01.397Z,100984.75
2022-11-03T14:14:32.178Z,100976.75
2022-11-03T14:17:10.896Z,100976.44
2022-11-03T14:19:59.178Z,100972.81
2022-11-03T14:22:38.879Z,100964.69
2022-11-03T14:25:12.397Z,100966.31
2022-11-03T14:27:53.393Z,100962.66
2022-11-03T14:30:27.327Z,100957.44
2022-11-03T14:33:03.427Z,100961.44
2022-11-03T14:35:38.667Z,100960.19
2022-11-03T14:38:20.533Z,100963.31
2022-11-03T14:41:08.970Z,100953.09
2022-11-03T14:43:41.438Z,100959.53
2022-11-03T14:46:17.949Z,100957.09
2022-11-03T14:48:51.478Z,100951.91
2022-11-03T14:51:19.162Z,100965.47
2022-11-03T14:53:52.781Z,100960.25
2022-11-03T14:56:25.361Z,100955.00
2022-11-03T14:58:56.433Z,100956.63
2022-11-03T15:01:29.608Z,100949.63
2022-11-03T15:03:59.728Z,100947.56
2022-11-03T15:06:30.729Z,100943.56
2022-11-03T15:09:04.132Z,100941.94
2022-11-03T15:11:37.837Z,100936.28
2022-11-03T15:14:13.221Z,100941.56
2022-11-03T15:16:48.913Z,100941.94
2022-11-03T15:19:17.241Z,100933.84
2022-11-03T15:21:52.078Z,100933.47
2022-11-03T15:27:22.960Z,100931.44
2022-11-03T15:29:53.710Z,100926.63
2022-11-03T15:32:24.345Z,100915.81
2022-11-03T15:34:59.118Z,100915.72
2022-11-03T15:37:30.515Z,100921.00
2022-11-03T15:40:00.211Z,100912.06
2022-11-03T15:42:38.941Z,100914.41
2022-11-03T15:45:17.953Z,100913.63
2022-11-03T15:47:45.814Z,100910.38
2022-11-03T15:50:16.329Z,100909.97
2022-11-03T15:52:51.711Z,100910.44
2022-11-03T15:55:25.612Z,100897.88
2022-11-03T15:57:57.607Z,100895.72
2022-11-03T16:00:32.369Z,100897.75
2022-11-03T16:03:02.791Z,100888.47
2022-11-03T16:05:33.934Z,100886.44
2022-11-03T16:08:08.139Z,100886.81
2022-11-03T16:10:38.427Z,100881.88
2022-11-03T16:13:06.414Z,100883.16
2022-11-03T16:15:40.454Z,100879.03
2022-11-03T16:18:08.572Z,100873.00
2022-11-03T16:20:44.896Z,100872.88
2022-11-03T16:23:12.795Z,100870.47
2022-11-03T16:25:46.660Z,100870.03
2022-11-03T16:28:14.835Z,100870.81
2022-11-03T16:30:51.095Z,100867.53
2022-11-03T16:33:24.634Z,100868.31
2022-11-03T16:35:55.211Z,100858.97
2022-11-03T16:38:31.221Z,100858.13
2022-11-03T16:41:02.076Z,100850.03
2022-11-03T16:43:32.679Z,100841.53
2022-11-03T16:46:10.624Z,100835.84
2022-11-03T16:48:53.710Z,100833.81
2022-11-03T16:51:27.118Z,100839.47
2022-11-03T16:53:59.830Z,100825.72
2022-11-03T16:56:31.790Z,100819.97
2022-11-03T16:59:07.193Z,100809.47
2022-11-03T17:01:46.444Z,100806.31
2022-11-03T17:04:20.183Z,100796.25
2022-11-03T17:06:50.790Z,100780.47
2022-11-03T17:09:21.355Z,100783.72
2022-11-03T17:11:49.135Z,100778.50
2022-11-03T17:14:22.479Z,100778.47
2022-11-03T17:17:04.572Z,100780.88
2022-11-03T17:19:35.830Z,100794.56
2022-11-03T17:22:28.504Z,100801.75
2022-11-03T17:25:02.608Z,100800.59
2022-11-03T17:27:48.176Z,100805.00
2022-11-03T17:30:20.293Z,100798.94
2022-11-03T17:32:53.192Z,100796.94
2022-11-03T17:35:27.121Z,100791.72
2022-11-03T17:38:05.404Z,100786.88
2022-11-03T17:40:36.461Z,100778.78
2022-11-03T17:43:15.312Z,100785.22
2022-11-03T17:45:51.082Z,100771.09
2022-11-03T17:48:23.990Z,100778.38
2022-11-03T17:50:57.997Z,100777.13
2022-11-03T17:53:36.884Z,100765.47
2022-11-03T17:56:29.999Z,100769.50
2022-11-03T17:59:01.134Z,100763.00
2022-11-03T18:01:34.065Z,100759.38
2022-11-03T18:04:02.896Z,100760.59
2022-11-03T18:06:36.380Z,100756.16
2022-11-03T18:09:14.451Z,100758.91
2022-11-03T18:12:04.452Z,100758.56
2022-11-03T18:14:35.758Z,100761.81
2022-11-03T18:17:06.085Z,100751.31
2022-11-03T18:19:38.358Z,100752.50
2022-11-03T18:22:13.301Z,100745.63
2022-11-03T18:24:45.406Z,100743.19
2022-11-03T18:27:24.163Z,100736.31
2022-11-03T18:30:01.383Z,100739.13
2022-11-03T18:32:37.597Z,100735.50
2022-11-03T18:35:17.758Z,100727.03
2022-11-03T18:37:54.099Z,100719.38
2022-11-03T18:40:24.423Z,100715.31
2022-11-03T18:42:54.063Z,100712.91
2022-11-03T18:45:23.583Z,100706.47
2022-11-03T18:47:54.212Z,100703.63
2022-11-03T18:50:31.592Z,100707.69
2022-11-03T18:53:07.098Z,100708.06
2022-11-03T18:55:40.304Z,100700.00
2022-11-03T18:58:24.628Z,100697.56
2022-11-03T19:01:00.423Z,100691.91
2022-11-03T19:03:41.592Z,100687.06
2022-11-03T19:06:14.697Z,100685.44
2022-11-03T19:08:46.048Z,100679.00
2022-11-03T19:11:16.475Z,100684.25
2022-11-03T19:13:51.588Z,100683.44
2022-11-03T19:16:23.640Z,100681.03
2022-11-03T19:19:00.507Z,100677.75
2022-11-03T19:21:36.505Z,100673.34
2022-11-03T19:24:09.677Z,100670.94
2022-11-03T19:26:58.101Z,100664.13
2022-11-03T19:29:38.266Z,100652.81
2022-11-03T19:32:07.789Z,100651.56
2022-11-03T19:34:40.360Z,100653.59
2022-11-03T19:37:14.262Z,100650.34
2022-11-03T19:39:48.666Z,100641.44
2022-11-03T19:42:31.813Z,100634.22
2022-11-03T19:45:03.397Z,100637.47
2022-11-03T19:47:39.817Z,100624.97
2022-11-03T19:50:21.437Z,100616.09
2022-11-03T19:52:52.057Z,100603.19
2022-11-03T19:55:30.017Z,100593.94
2022-11-03T19:58:03.009Z,100597.56
2022-11-03T20:00:33.473Z,100599.56
2022-11-03T20:03:06.953Z,100589.09
2022-11-03T20:05:36.883Z,100579.03
2022-11-03T20:08:18.496Z,100575.78
2022-11-03T20:10:52.928Z,100569.75
2022-11-03T20:13:26.356Z,100563.28
2022-11-03T20:16:02.007Z,100564.50
2022-11-03T20:18:34.705Z,100552.00
2022-11-03T20:21:04.332Z,100556.81
2022-11-03T20:23:38.345Z,100551.56
2022-11-03T20:26:31.615Z,100545.53
2022-11-03T20:29:02.176Z,100535.47
2022-11-03T20:31:29.701Z,100530.63
2022-11-03T20:34:02.652Z,100533.06
2022-11-03T20:36:37.940Z,100535.88
2022-11-03T20:39:06.480Z,100521.34
2022-11-03T20:41:43.565Z,100508.00
2022-11-03T20:44:19.204Z,100506.84
2022-11-03T20:46:51.374Z,100497.19
2022-11-03T20:49:28.350Z,100494.34
2022-11-03T20:51:56.342Z,100493.16
2022-11-03T20:54:29.046Z,100485.91
2022-11-03T20:57:01.857Z,100489.09
2022-11-03T20:59:37.713Z,100487.50
2022-11-03T21:02:13.665Z,100479.03
2022-11-03T21:04:46.502Z,100485.09
2022-11-03T21:07:19.116Z,100472.19
2022-11-03T21:09:51.807Z,100464.56
2022-11-03T21:12:24.678Z,100448.44
2022-11-03T21:15:10.458Z,100434.66
2022-11-03T21:18:03.713Z,100426.66
2022-11-03T21:20:36.416Z,100418.97
2022-11-03T21:23:14.355Z,100430.69
2022-11-03T21:25:44.834Z,100443.13
2022-11-03T21:28:17.518Z,100434.66
2022-11-03T21:30:53.040Z,100411.28
2022-11-03T21:33:22.948Z,100408.47
2022-11-03T21:35:55.968Z,100413.31
2022-11-03T21:38:31.690Z,100414.91
2022-11-03T21:41:19.068Z,100414.09
2022-11-03T21:44:06.023Z,100408.84
2022-11-03T21:46:35.933Z,100385.47
2022-11-03T21:49:24.414Z,100370.59
2022-11-03T21:51:54.306Z,100333.91
2022-11-03T21:54:24.804Z,100328.69
2022-11-03T21:56:54.645Z,100331.09
2022-11-03T21:59:25.046Z,100329.50
2022-11-03T22:02:00.189Z,100334.72
2022-11-03T22:04:39.378Z,100322.25
2022-11-03T22:07:10.084Z,100305.28
2022-11-03T22:09:42.590Z,100314.16
2022-11-03T22:12:12.879Z,100300.06
2022-11-03T22:15:01.423Z,100299.69
2022-11-03T22:17:36.147Z,100293.63
2022-11-03T22:20:25.931Z,100274.69
2022-11-03T22:23:22.924Z,100281.13
2022-11-03T22:26:09.010Z,100273.09
2022-11-03T22:28:41.785Z,100269.03
2022-11-03T22:31:30.754Z,100252.94
2022-11-03T22:34:19.506Z,100247.28
2022-11-03T22:36:49.256Z,100247.28
2022-11-03T22:39:40.955Z,100249.72
2022-11-03T22:42:29.885Z,100244.09
2022-11-03T22:45:16.223Z,100224.72
2022-11-03T22:47:46.232Z,100208.22
2022-11-03T22:50:21.483Z,100206.63
2022-11-03T22:52:56.160Z,100200.97
2022-11-03T22:55:26.602Z,100198.97
2022-11-03T22:57:54.017Z,100203.78
2022-11-03T23:00:26.954Z,100195.31
2022-11-03T23:02:56.777Z,100189.28
2022-11-03T23:05:27.133Z,100196.53
2022-11-03T23:07:54.605Z,100174.81
2022-11-03T23:10:28.598Z,100167.13
2022-11-03T23:12:58.971Z,100155.44
2022-11-03T23:15:32.406Z,100144.56
2022-11-03T23:18:22.405Z,100133.66
2022-11-03T23:21:09.000Z,100122.75
2022-11-03T23:24:00.624Z,100105.78
2022-11-03T23:26:30.175Z,100104.59
2022-11-03T23:28:57.722Z,100103.34
2022-11-03T23:31:36.737Z,100098.13
2022-11-03T23:34:05.180Z,100094.09
2022-11-03T23:36:33.797Z,100082.78
2022-11-03T23:39:01.918Z,100077.09
2022-11-03T23:41:37.266Z,100060.56
2022-11-03T23:44:24.187Z,100062.16
2022-11-03T23:47:13.053Z,100046.47
2022-11-03T23:49:45.895Z,100045.63
2022-11-03T23:52:27.272Z,100048.06
2022-11-03T23:54:57.682Z,100033.09
2022-11-03T23:57:52.117Z,100026.66
